sensor_id;sensor_type;location;lat;lon;timestamp;temperature;humidity
9542;DHT22;4809;48.224;8.572;2023-04-27T00:00:37;7.30;99.90
9542;DHT22;4809;48.224;8.572;2023-04-27T00:03:03;7.30;99.90
9542;DHT22;4809;48.224;8.572;2023-04-27T00:05:37;7.30;99.90
9542;DHT22;4809;48.224;8.572;2023-04-27T00:08:06;7.30;99.90
9542;DHT22;4809;48.224;8.572;2023-04-27T00:10:33;7.20;99.90
9542;DHT22;4809;48.224;8.572;2023-04-27T00:12:59;7.20;99.90
9542;DHT22;4809;48.224;8.572;2023-04-27T00:15:25;7.30;99.90
9542;DHT22;4809;48.224;8.572;2023-04-27T00:17:50;7.30;99.90
9542;DHT22;4809;48.224;8.572;2023-04-27T00:20:16;7.10;99.90
9542;DHT22;4809;48.224;8.572;2023-04-27T00:22:43;7.00;99.90
9542;DHT22;4809;48.224;8.572;2023-04-27T00:25:09;6.90;99.90
9542;DHT22;4809;48.224;8.572;2023-04-27T00:27:35;6.90;99.90
9542;DHT22;4809;48.224;8.572;2023-04-27T00:30:00;6.90;99.90
9542;DHT22;4809;48.224;8.572;2023-04-27T00:32:26;6.90;99.90
9542;DHT22;4809;48.224;8.572;2023-04-27T00:34:52;7.00;99.90
9542;DHT22;4809;48.224;8.572;2023-04-27T00:37:17;7.00;99.90
9542;DHT22;4809;48.224;8.572;2023-04-27T00:39:43;7.00;99.90
9542;DHT22;4809;48.224;8.572;2023-04-27T00:42:09;7.10;99.90
9542;DHT22;4809;48.224;8.572;2023-04-27T00:44:39;7.10;99.90
9542;DHT22;4809;48.224;8.572;2023-04-27T00:47:05;7.10;99.90
9542;DHT22;4809;48.224;8.572;2023-04-27T00:49:31;7.10;99.90
9542;DHT22;4809;48.224;8.572;2023-04-27T00:51:57;7.10;99.90
9542;DHT22;4809;48.224;8.572;2023-04-27T00:54:23;7.20;99.90
9542;DHT22;4809;48.224;8.572;2023-04-27T00:56:50;7.20;99.90
9542;DHT22;4809;48.224;8.572;2023-04-27T00:59:17;7.30;99.90
9542;DHT22;4809;48.224;8.572;2023-04-27T01:01:43;7.30;99.90
9542;DHT22;4809;48.224;8.572;2023-04-27T01:04:09;7.40;99.90
9542;DHT22;4809;48.224;8.572;2023-04-27T01:06:34;7.40;99.90
9542;DHT22;4809;48.224;8.572;2023-04-27T01:09:00;7.40;99.90
9542;DHT22;4809;48.224;8.572;2023-04-27T01:11:26;7.40;99.90
9542;DHT22;4809;48.224;8.572;2023-04-27T01:13:52;7.40;99.90
9542;DHT22;4809;48.224;8.572;2023-04-27T01:16:19;7.40;99.90
9542;DHT22;4809;48.224;8.572;2023-04-27T01:18:45;7.30;99.90
9542;DHT22;4809;48.224;8.572;2023-04-27T01:21:11;7.40;99.90
9542;DHT22;4809;48.224;8.572;2023-04-27T01:23:37;7.40;99.90
9542;DHT22;4809;48.224;8.572;2023-04-27T01:26:03;7.40;99.90
9542;DHT22;4809;48.224;8.572;2023-04-27T01:28:28;7.40;99.90
9542;DHT22;4809;48.224;8.572;2023-04-27T01:30:54;7.40;99.90
9542;DHT22;4809;48.224;8.572;2023-04-27T01:33:20;7.40;99.90
9542;DHT22;4809;48.224;8.572;2023-04-27T01:35:46;7.50;99.90
9542;DHT22;4809;48.224;8.572;2023-04-27T01:38:12;7.40;99.90
9542;DHT22;4809;48.224;8.572;2023-04-27T01:40:38;7.40;99.90
9542;DHT22;4809;48.224;8.572;2023-04-27T01:43:03;7.40;99.90
9542;DHT22;4809;48.224;8.572;2023-04-27T01:45:29;7.40;99.90
9542;DHT22;4809;48.224;8.572;2023-04-27T01:47:55;7.40;99.90
9542;DHT22;4809;48.224;8.572;2023-04-27T01:50:21;7.40;99.90
9542;DHT22;4809;48.224;8.572;2023-04-27T01:52:46;7.40;99.90
9542;DHT22;4809;48.224;8.572;2023-04-27T01:55:12;7.40;99.90
9542;DHT22;4809;48.224;8.572;2023-04-27T01:57:38;7.50;99.90
9542;DHT22;4809;48.224;8.572;2023-04-27T02:00:04;7.50;99.90
9542;DHT22;4809;48.224;8.572;2023-04-27T02:02:30;7.50;99.90
9542;DHT22;4809;48.224;8.572;2023-04-27T02:04:55;7.50;99.90
9542;DHT22;4809;48.224;8.572;2023-04-27T02:07:21;7.50;99.90
9542;DHT22;4809;48.224;8.572;2023-04-27T02:09:47;7.50;99.90
9542;DHT22;4809;48.224;8.572;2023-04-27T02:12:13;7.60;99.90
9542;DHT22;4809;48.224;8.572;2023-04-27T02:14:38;7.60;99.90
9542;DHT22;4809;48.224;8.572;2023-04-27T02:17:04;7.60;99.90
9542;DHT22;4809;48.224;8.572;2023-04-27T02:19:30;7.60;99.90
9542;DHT22;4809;48.224;8.572;2023-04-27T02:21:56;7.60;99.90
9542;DHT22;4809;48.224;8.572;2023-04-27T02:24:22;7.60;99.90
9542;DHT22;4809;48.224;8.572;2023-04-27T02:26:47;7.60;99.90
9542;DHT22;4809;48.224;8.572;2023-04-27T03:19:46;7.50;99.90
9542;DHT22;4809;48.224;8.572;2023-04-27T03:22:13;7.50;99.90
9542;DHT22;4809;48.224;8.572;2023-04-27T03:24:39;7.50;99.90
9542;DHT22;4809;48.224;8.572;2023-04-27T03:27:04;7.60;99.90
9542;DHT22;4809;48.224;8.572;2023-04-27T03:29:30;7.60;99.90
9542;DHT22;4809;48.224;8.572;2023-04-27T03:31:56;7.60;99.90
9542;DHT22;4809;48.224;8.572;2023-04-27T03:34:21;7.60;99.90
9542;DHT22;4809;48.224;8.572;2023-04-27T03:36:48;7.50;99.90
9542;DHT22;4809;48.224;8.572;2023-04-27T03:39:13;7.60;99.90
9542;DHT22;4809;48.224;8.572;2023-04-27T03:41:39;7.60;99.90
9542;DHT22;4809;48.224;8.572;2023-04-27T03:44:05;7.60;99.90
9542;DHT22;4809;48.224;8.572;2023-04-27T03:46:31;7.60;99.90
9542;DHT22;4809;48.224;8.572;2023-04-27T03:48:57;7.60;99.90
9542;DHT22;4809;48.224;8.572;2023-04-27T03:51:22;7.60;99.90
9542;DHT22;4809;48.224;8.572;2023-04-27T03:53:48;7.60;99.90
9542;DHT22;4809;48.224;8.572;2023-04-27T03:56:14;7.60;99.90
9542;DHT22;4809;48.224;8.572;2023-04-27T03:58:40;7.60;99.90
9542;DHT22;4809;48.224;8.572;2023-04-27T04:01:06;7.60;99.90
9542;DHT22;4809;48.224;8.572;2023-04-27T04:03:35;7.60;99.90
9542;DHT22;4809;48.224;8.572;2023-04-27T04:06:01;7.60;99.90
9542;DHT22;4809;48.224;8.572;2023-04-27T04:08:28;7.70;99.90
9542;DHT22;4809;48.224;8.572;2023-04-27T04:10:58;7.60;99.90
9542;DHT22;4809;48.224;8.572;2023-04-27T04:13:24;7.60;99.90
9542;DHT22;4809;48.224;8.572;2023-04-27T04:15:49;7.60;99.90
9542;DHT22;4809;48.224;8.572;2023-04-27T04:18:15;7.60;99.90
9542;DHT22;4809;48.224;8.572;2023-04-27T04:20:41;7.60;99.90
9542;DHT22;4809;48.224;8.572;2023-04-27T04:23:06;7.60;99.90
9542;DHT22;4809;48.224;8.572;2023-04-27T04:25:32;7.60;99.90
9542;DHT22;4809;48.224;8.572;2023-04-27T04:27:58;7.60;99.90
9542;DHT22;4809;48.224;8.572;2023-04-27T04:30:23;7.60;99.90
9542;DHT22;4809;48.224;8.572;2023-04-27T04:32:49;7.50;99.90
9542;DHT22;4809;48.224;8.572;2023-04-27T04:35:15;7.50;99.90
9542;DHT22;4809;48.224;8.572;2023-04-27T04:37:43;7.50;99.90
9542;DHT22;4809;48.224;8.572;2023-04-27T04:40:09;7.60;99.90
9542;DHT22;4809;48.224;8.572;2023-04-27T04:42:36;7.50;99.90
9542;DHT22;4809;48.224;8.572;2023-04-27T04:45:05;7.50;99.90
9542;DHT22;4809;48.224;8.572;2023-04-27T04:47:31;7.50;99.90
9542;DHT22;4809;48.224;8.572;2023-04-27T04:49:58;7.50;99.90
9542;DHT22;4809;48.224;8.572;2023-04-27T04:52:24;7.50;99.90
9542;DHT22;4809;48.224;8.572;2023-04-27T04:54:53;7.60;99.90
9542;DHT22;4809;48.224;8.572;2023-04-27T04:57:18;7.60;99.90
9542;DHT22;4809;48.224;8.572;2023-04-27T04:59:44;7.60;99.90
9542;DHT22;4809;48.224;8.572;2023-04-27T05:02:10;7.70;99.90
9542;DHT22;4809;48.224;8.572;2023-04-27T05:04:35;7.80;99.90
9542;DHT22;4809;48.224;8.572;2023-04-27T05:07:01;7.80;99.90
9542;DHT22;4809;48.224;8.572;2023-04-27T05:09:27;7.90;99.90
9542;DHT22;4809;48.224;8.572;2023-04-27T05:11:53;7.90;99.90
9542;DHT22;4809;48.224;8.572;2023-04-27T05:14:18;8.00;99.90
9542;DHT22;4809;48.224;8.572;2023-04-27T05:16:44;8.00;99.90
9542;DHT22;4809;48.224;8.572;2023-04-27T05:19:10;8.10;99.90
9542;DHT22;4809;48.224;8.572;2023-04-27T05:21:36;8.10;99.90
9542;DHT22;4809;48.224;8.572;2023-04-27T05:24:02;8.20;99.90
9542;DHT22;4809;48.224;8.572;2023-04-27T05:26:27;8.20;99.90
9542;DHT22;4809;48.224;8.572;2023-04-27T05:28:53;8.30;99.90
9542;DHT22;4809;48.224;8.572;2023-04-27T05:31:18;8.30;99.90
9542;DHT22;4809;48.224;8.572;2023-04-27T05:33:44;8.40;99.90
9542;DHT22;4809;48.224;8.572;2023-04-27T05:36:10;8.40;99.90
9542;DHT22;4809;48.224;8.572;2023-04-27T05:38:35;8.50;99.90
9542;DHT22;4809;48.224;8.572;2023-04-27T05:41:04;8.50;99.90
9542;DHT22;4809;48.224;8.572;2023-04-27T05:43:30;8.60;99.90
9542;DHT22;4809;48.224;8.572;2023-04-27T05:45:55;8.70;99.90
9542;DHT22;4809;48.224;8.572;2023-04-27T05:48:21;8.70;99.90
9542;DHT22;4809;48.224;8.572;2023-04-27T05:50:47;8.70;99.90
9542;DHT22;4809;48.224;8.572;2023-04-27T05:53:12;8.70;99.90
9542;DHT22;4809;48.224;8.572;2023-04-27T05:55:38;8.70;99.90
9542;DHT22;4809;48.224;8.572;2023-04-27T05:58:04;8.80;99.90
9542;DHT22;4809;48.224;8.572;2023-04-27T06:00:29;8.90;99.90
9542;DHT22;4809;48.224;8.572;2023-04-27T06:02:56;8.90;99.90
9542;DHT22;4809;48.224;8.572;2023-04-27T06:05:21;9.00;99.90
9542;DHT22;4809;48.224;8.572;2023-04-27T06:07:47;9.10;99.90
9542;DHT22;4809;48.224;8.572;2023-04-27T06:10:13;9.20;99.90
9542;DHT22;4809;48.224;8.572;2023-04-27T06:12:40;9.30;99.90
9542;DHT22;4809;48.224;8.572;2023-04-27T06:15:06;9.40;99.90
9542;DHT22;4809;48.224;8.572;2023-04-27T06:17:36;9.50;99.90
9542;DHT22;4809;48.224;8.572;2023-04-27T06:20:02;9.60;99.90
9542;DHT22;4809;48.224;8.572;2023-04-27T06:22:31;9.60;99.90
9542;DHT22;4809;48.224;8.572;2023-04-27T06:24:57;9.70;99.90
9542;DHT22;4809;48.224;8.572;2023-04-27T06:27:22;9.70;99.90
9542;DHT22;4809;48.224;8.572;2023-04-27T06:29:48;9.80;99.90
9542;DHT22;4809;48.224;8.572;2023-04-27T06:32:14;9.90;99.90
9542;DHT22;4809;48.224;8.572;2023-04-27T06:34:39;9.90;99.90
9542;DHT22;4809;48.224;8.572;2023-04-27T06:37:06;10.10;99.90
9542;DHT22;4809;48.224;8.572;2023-04-27T06:39:32;10.10;99.90
9542;DHT22;4809;48.224;8.572;2023-04-27T06:41:57;10.20;99.90
9542;DHT22;4809;48.224;8.572;2023-04-27T06:44:23;10.30;99.90
9542;DHT22;4809;48.224;8.572;2023-04-27T06:46:49;10.40;99.90
9542;DHT22;4809;48.224;8.572;2023-04-27T06:49:15;10.40;99.90
9542;DHT22;4809;48.224;8.572;2023-04-27T06:51:41;10.40;99.90
9542;DHT22;4809;48.224;8.572;2023-04-27T06:54:07;10.50;99.90
9542;DHT22;4809;48.224;8.572;2023-04-27T06:56:32;10.60;99.90
9542;DHT22;4809;48.224;8.572;2023-04-27T06:58:58;10.60;99.90
9542;DHT22;4809;48.224;8.572;2023-04-27T07:01:24;10.80;99.90
9542;DHT22;4809;48.224;8.572;2023-04-27T07:03:49;10.80;99.90
9542;DHT22;4809;48.224;8.572;2023-04-27T07:06:15;11.00;99.90
9542;DHT22;4809;48.224;8.572;2023-04-27T07:08:41;11.10;99.90
9542;DHT22;4809;48.224;8.572;2023-04-27T07:11:10;11.20;99.90
9542;DHT22;4809;48.224;8.572;2023-04-27T07:13:36;11.30;99.90
9542;DHT22;4809;48.224;8.572;2023-04-27T07:16:02;11.50;99.90
9542;DHT22;4809;48.224;8.572;2023-04-27T07:18:27;11.60;99.90
9542;DHT22;4809;48.224;8.572;2023-04-27T07:20:54;11.70;99.90
9542;DHT22;4809;48.224;8.572;2023-04-27T07:23:20;11.80;99.90
9542;DHT22;4809;48.224;8.572;2023-04-27T07:25:45;12.00;99.90
9542;DHT22;4809;48.224;8.572;2023-04-27T07:28:11;12.20;99.90
9542;DHT22;4809;48.224;8.572;2023-04-27T07:30:37;12.40;99.90
9542;DHT22;4809;48.224;8.572;2023-04-27T07:33:04;12.40;99.90
9542;DHT22;4809;48.224;8.572;2023-04-27T07:35:29;12.20;99.90
9542;DHT22;4809;48.224;8.572;2023-04-27T07:37:56;12.20;99.90
9542;DHT22;4809;48.224;8.572;2023-04-27T07:40:22;12.10;99.90
9542;DHT22;4809;48.224;8.572;2023-04-27T07:42:49;12.10;99.90
9542;DHT22;4809;48.224;8.572;2023-04-27T07:45:16;12.10;99.90
9542;DHT22;4809;48.224;8.572;2023-04-27T07:47:42;12.30;99.90
9542;DHT22;4809;48.224;8.572;2023-04-27T07:50:09;12.30;99.90
9542;DHT22;4809;48.224;8.572;2023-04-27T07:52:35;12.60;99.90
9542;DHT22;4809;48.224;8.572;2023-04-27T07:55:01;12.80;99.90
9542;DHT22;4809;48.224;8.572;2023-04-27T07:57:28;13.10;99.90
9542;DHT22;4809;48.224;8.572;2023-04-27T07:59:53;13.20;99.90
9542;DHT22;4809;48.224;8.572;2023-04-27T08:02:19;13.30;99.90
9542;DHT22;4809;48.224;8.572;2023-04-27T08:04:45;13.40;99.90
9542;DHT22;4809;48.224;8.572;2023-04-27T08:07:11;13.50;99.90
9542;DHT22;4809;48.224;8.572;2023-04-27T08:09:36;13.50;99.90
9542;DHT22;4809;48.224;8.572;2023-04-27T08:12:02;13.60;99.90
9542;DHT22;4809;48.224;8.572;2023-04-27T08:14:28;13.60;99.70
9542;DHT22;4809;48.224;8.572;2023-04-27T08:16:54;13.70;99.50
9542;DHT22;4809;48.224;8.572;2023-04-27T08:19:19;13.80;98.00
9542;DHT22;4809;48.224;8.572;2023-04-27T08:21:45;13.90;97.90
9542;DHT22;4809;48.224;8.572;2023-04-27T08:24:11;13.90;95.50
9542;DHT22;4809;48.224;8.572;2023-04-27T08:26:36;13.90;95.80
9542;DHT22;4809;48.224;8.572;2023-04-27T08:29:02;13.90;95.70
9542;DHT22;4809;48.224;8.572;2023-04-27T08:31:28;14.00;95.90
9542;DHT22;4809;48.224;8.572;2023-04-27T08:33:54;14.00;95.70
9542;DHT22;4809;48.224;8.572;2023-04-27T08:36:21;14.10;95.00
9542;DHT22;4809;48.224;8.572;2023-04-27T08:38:53;14.30;96.20
9542;DHT22;4809;48.224;8.572;2023-04-27T08:41:23;14.90;95.10
9542;DHT22;4809;48.224;8.572;2023-04-27T08:43:50;15.40;93.90
9542;DHT22;4809;48.224;8.572;2023-04-27T08:46:22;16.00;93.60
9542;DHT22;4809;48.224;8.572;2023-04-27T08:48:52;16.80;91.90
9542;DHT22;4809;48.224;8.572;2023-04-27T08:51:19;17.10;91.60
9542;DHT22;4809;48.224;8.572;2023-04-27T08:53:50;17.30;83.20
9542;DHT22;4809;48.224;8.572;2023-04-27T08:56:17;17.30;84.30
9542;DHT22;4809;48.224;8.572;2023-04-27T08:58:43;17.00;77.50
9542;DHT22;4809;48.224;8.572;2023-04-27T09:01:09;16.90;76.80
9542;DHT22;4809;48.224;8.572;2023-04-27T09:03:36;16.30;77.70
9542;DHT22;4809;48.224;8.572;2023-04-27T09:06:03;16.10;80.80
9542;DHT22;4809;48.224;8.572;2023-04-27T09:08:39;15.90;80.50
9542;DHT22;4809;48.224;8.572;2023-04-27T09:11:05;16.20;85.50
9542;DHT22;4809;48.224;8.572;2023-04-27T09:13:35;16.70;79.10
9542;DHT22;4809;48.224;8.572;2023-04-27T09:16:01;16.60;82.00
9542;DHT22;4809;48.224;8.572;2023-04-27T09:18:27;16.90;85.40
9542;DHT22;4809;48.224;8.572;2023-04-27T09:20:53;17.30;86.20
9542;DHT22;4809;48.224;8.572;2023-04-27T09:26:02;18.10;81.20
9542;DHT22;4809;48.224;8.572;2023-04-27T09:28:29;18.40;79.10
9542;DHT22;4809;48.224;8.572;2023-04-27T09:30:57;18.70;75.80
9542;DHT22;4809;48.224;8.572;2023-04-27T09:33:25;18.90;76.80
9542;DHT22;4809;48.224;8.572;2023-04-27T09:35:51;18.90;73.00
9542;DHT22;4809;48.224;8.572;2023-04-27T09:38:21;18.80;70.80
9542;DHT22;4809;48.224;8.572;2023-04-27T09:40:48;18.40;72.70
9542;DHT22;4809;48.224;8.572;2023-04-27T09:43:14;18.10;72.50
9542;DHT22;4809;48.224;8.572;2023-04-27T09:45:41;17.70;70.70
9542;DHT22;4809;48.224;8.572;2023-04-27T09:48:07;17.20;72.70
9542;DHT22;4809;48.224;8.572;2023-04-27T09:50:41;16.90;71.10
9542;DHT22;4809;48.224;8.572;2023-04-27T09:53:14;17.00;75.40
9542;DHT22;4809;48.224;8.572;2023-04-27T10:01:46;16.30;75.20
9542;DHT22;4809;48.224;8.572;2023-04-27T10:07:10;15.80;74.70
9542;DHT22;4809;48.224;8.572;2023-04-27T10:09:44;15.70;80.40
9542;DHT22;4809;48.224;8.572;2023-04-27T10:12:36;15.70;79.50
9542;DHT22;4809;48.224;8.572;2023-04-27T10:15:13;15.70;78.40
9542;DHT22;4809;48.224;8.572;2023-04-27T10:17:47;15.80;78.90
9542;DHT22;4809;48.224;8.572;2023-04-27T10:20:13;16.00;79.00
9542;DHT22;4809;48.224;8.572;2023-04-27T10:22:45;16.20;76.60
9542;DHT22;4809;48.224;8.572;2023-04-27T10:25:19;16.20;76.40
9542;DHT22;4809;48.224;8.572;2023-04-27T10:27:59;16.10;76.70
9542;DHT22;4809;48.224;8.572;2023-04-27T10:30:33;16.20;78.70
9542;DHT22;4809;48.224;8.572;2023-04-27T10:33:08;16.10;77.80
9542;DHT22;4809;48.224;8.572;2023-04-27T10:35:39;16.00;76.70
9542;DHT22;4809;48.224;8.572;2023-04-27T10:38:14;15.80;76.80
9542;DHT22;4809;48.224;8.572;2023-04-27T10:41:04;15.50;78.70
9542;DHT22;4809;48.224;8.572;2023-04-27T10:43:34;15.40;78.70
9542;DHT22;4809;48.224;8.572;2023-04-27T10:46:13;15.60;79.20
9542;DHT22;4809;48.224;8.572;2023-04-27T10:48:40;15.60;76.60
9542;DHT22;4809;48.224;8.572;2023-04-27T10:51:06;15.60;77.00
9542;DHT22;4809;48.224;8.572;2023-04-27T10:53:36;16.10;75.40
9542;DHT22;4809;48.224;8.572;2023-04-27T10:56:02;16.90;76.20
9542;DHT22;4809;48.224;8.572;2023-04-27T10:58:34;17.50;75.80
9542;DHT22;4809;48.224;8.572;2023-04-27T11:01:00;17.70;72.30
9542;DHT22;4809;48.224;8.572;2023-04-27T11:03:26;17.70;69.40
9542;DHT22;4809;48.224;8.572;2023-04-27T11:06:03;17.60;68.20
9542;DHT22;4809;48.224;8.572;2023-04-27T11:08:29;17.40;72.90
9542;DHT22;4809;48.224;8.572;2023-04-27T11:11:01;17.30;75.00
9542;DHT22;4809;48.224;8.572;2023-04-27T11:13:26;17.30;70.80
9542;DHT22;4809;48.224;8.572;2023-04-27T11:15:57;17.30;69.20
9542;DHT22;4809;48.224;8.572;2023-04-27T11:18:30;17.50;68.60
9542;DHT22;4809;48.224;8.572;2023-04-27T11:21:25;18.20;73.80
9542;DHT22;4809;48.224;8.572;2023-04-27T11:23:52;18.90;65.70
9542;DHT22;4809;48.224;8.572;2023-04-27T11:26:22;19.50;67.80
9542;DHT22;4809;48.224;8.572;2023-04-27T11:29:05;19.70;63.60
9542;DHT22;4809;48.224;8.572;2023-04-27T11:31:41;19.70;63.00
9542;DHT22;4809;48.224;8.572;2023-04-27T11:34:18;19.80;62.50
9542;DHT22;4809;48.224;8.572;2023-04-27T11:36:44;20.30;63.60
9542;DHT22;4809;48.224;8.572;2023-04-27T11:39:16;20.70;58.60
9542;DHT22;4809;48.224;8.572;2023-04-27T11:41:46;20.70;62.40
9542;DHT22;4809;48.224;8.572;2023-04-27T11:44:11;20.40;56.40
9542;DHT22;4809;48.224;8.572;2023-04-27T11:46:38;20.20;57.90
9542;DHT22;4809;48.224;8.572;2023-04-27T11:49:06;20.10;58.80
9542;DHT22;4809;48.224;8.572;2023-04-27T11:51:33;20.00;58.50
9542;DHT22;4809;48.224;8.572;2023-04-27T11:54:01;20.20;62.40
9542;DHT22;4809;48.224;8.572;2023-04-27T11:56:36;20.70;60.50
9542;DHT22;4809;48.224;8.572;2023-04-27T11:59:03;20.40;57.20
9542;DHT22;4809;48.224;8.572;2023-04-27T12:01:32;20.20;58.90
9542;DHT22;4809;48.224;8.572;2023-04-27T12:03:59;19.90;60.10
9542;DHT22;4809;48.224;8.572;2023-04-27T12:06:27;19.50;58.60
9542;DHT22;4809;48.224;8.572;2023-04-27T12:08:57;19.10;59.80
9542;DHT22;4809;48.224;8.572;2023-04-27T12:11:26;18.90;60.20
9542;DHT22;4809;48.224;8.572;2023-04-27T12:13:53;18.70;61.40
9542;DHT22;4809;48.224;8.572;2023-04-27T12:16:20;18.30;63.50
9542;DHT22;4809;48.224;8.572;2023-04-27T12:18:48;18.10;62.30
9542;DHT22;4809;48.224;8.572;2023-04-27T12:21:14;18.00;62.70
9542;DHT22;4809;48.224;8.572;2023-04-27T12:23:40;18.10;63.90
9542;DHT22;4809;48.224;8.572;2023-04-27T12:26:05;18.00;62.80
9542;DHT22;4809;48.224;8.572;2023-04-27T12:28:31;18.20;61.50
9542;DHT22;4809;48.224;8.572;2023-04-27T12:30:57;18.30;63.20
9542;DHT22;4809;48.224;8.572;2023-04-27T12:33:22;18.50;61.60
9542;DHT22;4809;48.224;8.572;2023-04-27T12:35:48;18.70;60.30
9542;DHT22;4809;48.224;8.572;2023-04-27T12:38:14;18.70;58.00
9542;DHT22;4809;48.224;8.572;2023-04-27T12:40:40;18.70;58.90
9542;DHT22;4809;48.224;8.572;2023-04-27T12:43:07;18.60;58.70
9542;DHT22;4809;48.224;8.572;2023-04-27T12:45:33;18.30;59.10
9542;DHT22;4809;48.224;8.572;2023-04-27T12:47:58;18.10;60.40
9542;DHT22;4809;48.224;8.572;2023-04-27T12:50:24;18.00;60.70
9542;DHT22;4809;48.224;8.572;2023-04-27T12:52:50;18.20;59.90
9542;DHT22;4809;48.224;8.572;2023-04-27T12:55:16;18.40;57.70
9542;DHT22;4809;48.224;8.572;2023-04-27T12:57:42;18.40;59.70
9542;DHT22;4809;48.224;8.572;2023-04-27T13:00:08;18.40;61.90
9542;DHT22;4809;48.224;8.572;2023-04-27T13:02:35;18.60;61.10
9542;DHT22;4809;48.224;8.572;2023-04-27T13:05:02;18.80;58.30
9542;DHT22;4809;48.224;8.572;2023-04-27T13:07:28;19.00;57.90
9542;DHT22;4809;48.224;8.572;2023-04-27T13:09:54;18.90;58.20
9542;DHT22;4809;48.224;8.572;2023-04-27T13:12:20;19.10;60.40
9542;DHT22;4809;48.224;8.572;2023-04-27T13:14:46;19.40;58.80
9542;DHT22;4809;48.224;8.572;2023-04-27T13:17:12;19.60;55.80
9542;DHT22;4809;48.224;8.572;2023-04-27T13:19:37;19.90;56.00
9542;DHT22;4809;48.224;8.572;2023-04-27T13:22:03;19.70;54.50
9542;DHT22;4809;48.224;8.572;2023-04-27T13:24:29;19.70;54.90
9542;DHT22;4809;48.224;8.572;2023-04-27T13:26:55;19.80;54.80
9542;DHT22;4809;48.224;8.572;2023-04-27T13:29:21;19.60;55.70
9542;DHT22;4809;48.224;8.572;2023-04-27T13:31:49;19.60;55.10
9542;DHT22;4809;48.224;8.572;2023-04-27T13:34:15;19.80;55.90
9542;DHT22;4809;48.224;8.572;2023-04-27T13:36:41;19.80;56.80
9542;DHT22;4809;48.224;8.572;2023-04-27T13:39:06;19.50;56.20
9542;DHT22;4809;48.224;8.572;2023-04-27T13:41:33;19.50;57.10
9542;DHT22;4809;48.224;8.572;2023-04-27T13:43:59;19.50;58.50
9542;DHT22;4809;48.224;8.572;2023-04-27T13:46:25;19.60;60.00
9542;DHT22;4809;48.224;8.572;2023-04-27T13:48:51;19.50;59.20
9542;DHT22;4809;48.224;8.572;2023-04-27T13:51:17;19.50;60.30
9542;DHT22;4809;48.224;8.572;2023-04-27T13:53:42;19.50;59.50
9542;DHT22;4809;48.224;8.572;2023-04-27T13:56:08;19.50;59.60
9542;DHT22;4809;48.224;8.572;2023-04-27T13:58:34;19.60;58.40
9542;DHT22;4809;48.224;8.572;2023-04-27T14:00:59;19.50;57.50
9542;DHT22;4809;48.224;8.572;2023-04-27T14:03:25;19.50;59.20
9542;DHT22;4809;48.224;8.572;2023-04-27T14:05:51;19.30;57.80
9542;DHT22;4809;48.224;8.572;2023-04-27T14:08:17;19.10;58.20
9542;DHT22;4809;48.224;8.572;2023-04-27T14:10:44;19.20;56.90
9542;DHT22;4809;48.224;8.572;2023-04-27T14:13:11;19.90;54.40
9542;DHT22;4809;48.224;8.572;2023-04-27T14:15:36;20.40;53.90
9542;DHT22;4809;48.224;8.572;2023-04-27T14:18:06;20.90;54.40
9542;DHT22;4809;48.224;8.572;2023-04-27T14:20:35;21.30;54.20
9542;DHT22;4809;48.224;8.572;2023-04-27T14:23:03;21.50;53.40
9542;DHT22;4809;48.224;8.572;2023-04-27T14:25:29;21.30;51.80
9542;DHT22;4809;48.224;8.572;2023-04-27T14:28:06;21.10;51.60
9542;DHT22;4809;48.224;8.572;2023-04-27T14:30:32;20.90;51.50
9542;DHT22;4809;48.224;8.572;2023-04-27T14:32:57;21.10;52.30
9542;DHT22;4809;48.224;8.572;2023-04-27T14:35:23;21.30;51.80
9542;DHT22;4809;48.224;8.572;2023-04-27T14:37:52;21.50;53.40
9542;DHT22;4809;48.224;8.572;2023-04-27T14:40:18;21.70;50.80
9542;DHT22;4809;48.224;8.572;2023-04-27T14:42:44;21.50;50.80
9542;DHT22;4809;48.224;8.572;2023-04-27T14:45:11;21.50;52.10
9542;DHT22;4809;48.224;8.572;2023-04-27T14:47:37;21.40;52.10
9542;DHT22;4809;48.224;8.572;2023-04-27T14:50:03;21.50;52.00
9542;DHT22;4809;48.224;8.572;2023-04-27T14:52:28;21.10;51.60
9542;DHT22;4809;48.224;8.572;2023-04-27T14:54:54;21.00;52.60
9542;DHT22;4809;48.224;8.572;2023-04-27T14:57:20;21.10;53.80
9542;DHT22;4809;48.224;8.572;2023-04-27T14:59:46;21.40;55.80
9542;DHT22;4809;48.224;8.572;2023-04-27T15:02:14;21.90;54.00
9542;DHT22;4809;48.224;8.572;2023-04-27T15:04:40;22.40;51.70
9542;DHT22;4809;48.224;8.572;2023-04-27T15:07:06;22.80;52.10
9542;DHT22;4809;48.224;8.572;2023-04-27T15:09:37;22.60;47.50
9542;DHT22;4809;48.224;8.572;2023-04-27T15:12:02;21.80;47.20
9542;DHT22;4809;48.224;8.572;2023-04-27T15:14:29;21.80;49.00
9542;DHT22;4809;48.224;8.572;2023-04-27T15:16:55;21.70;49.90
9542;DHT22;4809;48.224;8.572;2023-04-27T15:19:21;22.10;51.00
9542;DHT22;4809;48.224;8.572;2023-04-27T15:21:46;22.10;49.10
9542;DHT22;4809;48.224;8.572;2023-04-27T15:24:13;21.80;47.80
9542;DHT22;4809;48.224;8.572;2023-04-27T15:26:38;21.40;49.30
9542;DHT22;4809;48.224;8.572;2023-04-27T15:29:05;21.10;50.10
9542;DHT22;4809;48.224;8.572;2023-04-27T15:31:30;20.90;52.00
9542;DHT22;4809;48.224;8.572;2023-04-27T15:33:56;21.20;52.90
9542;DHT22;4809;48.224;8.572;2023-04-27T15:36:22;21.80;51.90
9542;DHT22;4809;48.224;8.572;2023-04-27T15:38:51;22.30;50.80
9542;DHT22;4809;48.224;8.572;2023-04-27T15:41:17;22.90;50.90
9542;DHT22;4809;48.224;8.572;2023-04-27T15:43:43;23.40;51.80
9542;DHT22;4809;48.224;8.572;2023-04-27T15:46:09;23.80;51.20
9542;DHT22;4809;48.224;8.572;2023-04-27T15:48:35;24.00;49.00
9542;DHT22;4809;48.224;8.572;2023-04-27T15:51:00;23.80;47.30
9542;DHT22;4809;48.224;8.572;2023-04-27T15:53:28;23.40;46.60
9542;DHT22;4809;48.224;8.572;2023-04-27T15:55:53;23.00;48.10
9542;DHT22;4809;48.224;8.572;2023-04-27T15:58:19;22.70;48.40
9542;DHT22;4809;48.224;8.572;2023-04-27T16:00:48;22.40;47.80
9542;DHT22;4809;48.224;8.572;2023-04-27T16:03:13;22.40;48.40
9542;DHT22;4809;48.224;8.572;2023-04-27T16:05:39;23.30;47.40
9542;DHT22;4809;48.224;8.572;2023-04-27T16:08:05;24.90;43.80
9542;DHT22;4809;48.224;8.572;2023-04-27T16:10:31;26.30;42.60
9542;DHT22;4809;48.224;8.572;2023-04-27T16:12:57;28.60;37.60
9542;DHT22;4809;48.224;8.572;2023-04-27T16:15:23;29.20;36.30
9542;DHT22;4809;48.224;8.572;2023-04-27T16:17:49;27.40;38.60
9542;DHT22;4809;48.224;8.572;2023-04-27T16:20:14;25.70;41.10
9542;DHT22;4809;48.224;8.572;2023-04-27T16:22:40;24.30;43.20
9542;DHT22;4809;48.224;8.572;2023-04-27T16:25:06;23.30;44.40
9542;DHT22;4809;48.224;8.572;2023-04-27T16:27:35;22.50;45.50
9542;DHT22;4809;48.224;8.572;2023-04-27T16:30:02;22.10;46.60
9542;DHT22;4809;48.224;8.572;2023-04-27T16:32:28;21.70;48.10
9542;DHT22;4809;48.224;8.572;2023-04-27T16:34:54;21.20;46.90
9542;DHT22;4809;48.224;8.572;2023-04-27T16:37:20;20.90;48.30
9542;DHT22;4809;48.224;8.572;2023-04-27T16:39:46;20.60;50.00
9542;DHT22;4809;48.224;8.572;2023-04-27T16:42:11;20.50;51.30
9542;DHT22;4809;48.224;8.572;2023-04-27T16:44:42;20.10;49.80
9542;DHT22;4809;48.224;8.572;2023-04-27T16:47:08;19.80;51.50
9542;DHT22;4809;48.224;8.572;2023-04-27T16:49:34;19.50;51.70
9542;DHT22;4809;48.224;8.572;2023-04-27T16:52:00;19.10;51.50
9542;DHT22;4809;48.224;8.572;2023-04-27T16:54:26;18.80;52.70
9542;DHT22;4809;48.224;8.572;2023-04-27T16:56:52;18.50;52.20
9542;DHT22;4809;48.224;8.572;2023-04-27T16:59:17;18.30;53.10
9542;DHT22;4809;48.224;8.572;2023-04-27T17:01:43;18.10;54.30
9542;DHT22;4809;48.224;8.572;2023-04-27T17:04:09;18.10;55.10
9542;DHT22;4809;48.224;8.572;2023-04-27T17:06:35;18.00;54.90